sensor_id;sensor_type;location;lat;lon;timestamp;pressure;altitude;pressure_sealevel;temperature;humidity
62152;BME280;48139;47.474;19.034;2022-09-09T03:36:58;100171.50;;;18.57;88.68
62152;BME280;48139;47.474;19.034;2022-09-09T03:40:02;100171.50;;;18.57;88.68
62152;BME280;48139;47.474;19.034;2022-09-09T03:43:05;100170.47;;;18.05;90.77
62152;BME280;48139;47.474;19.034;2022-09-09T03:46:08;100178.28;;;18.06;91.25
62152;BME280;48139;47.474;19.034;2022-09-09T03:49:11;100179.47;;;18.13;90.69
62152;BME280;48139;47.474;19.034;2022-09-09T03:52:14;100176.19;;;18.21;90.83
62152;BME280;48139;47.474;19.034;2022-09-09T03:55:23;100185.63;;;18.14;91.09
62152;BME280;48139;47.474;19.034;2022-09-09T03:58:27;100186.97;;;18.08;91.29
62152;BME280;48139;47.474;19.034;2022-09-09T04:01:31;100186.37;;;17.94;90.71
62152;BME280;48139;47.474;19.034;2022-09-09T04:04:34;100179.16;;;17.96;91.64
62152;BME280;48139;47.474;19.034;2022-09-09T04:07:36;100185.25;;;18.07;90.93
62152;BME280;48139;47.474;19.034;2022-09-09T04:10:40;100177.53;;;18.16;91.42
62152;BME280;48139;47.474;19.034;2022-09-09T04:13:42;100182.47;;;18.20;91.26
62152;BME280;48139;47.474;19.034;2022-09-09T04:16:47;100177.53;;;18.16;91.15
62152;BME280;48139;47.474;19.034;2022-09-09T04:19:50;100182.47;;;18.20;91.96
62152;BME280;48139;47.474;19.034;2022-09-09T04:22:53;100189.84;;;18.05;92.43
62152;BME280;48139;47.474;19.034;2022-09-09T04:25:56;100189.59;;;18.08;92.01
62152;BME280;48139;47.474;19.034;2022-09-09T04:29:00;100189.03;;;18.05;92.00
62152;BME280;48139;47.474;19.034;2022-09-09T04:32:03;100181.62;;;18.20;91.51
62152;BME280;48139;47.474;19.034;2022-09-09T04:35:07;100183.19;;;18.22;91.56
62152;BME280;48139;47.474;19.034;2022-09-09T04:38:10;100178.84;;;18.21;92.27
62152;BME280;48139;47.474;19.034;2022-09-09T04:41:13;100184.50;;;18.28;91.70
62152;BME280;48139;47.474;19.034;2022-09-09T04:44:16;100191.69;;;18.37;90.18
62152;BME280;48139;47.474;19.034;2022-09-09T04:47:18;100180.41;;;18.24;88.86
62152;BME280;48139;47.474;19.034;2022-09-09T04:50:21;100170.78;;;18.23;87.42
62152;BME280;48139;47.474;19.034;2022-09-09T04:53:31;100180.78;;;18.19;84.21
62152;BME280;48139;47.474;19.034;2022-09-09T04:56:33;100180.50;;;18.33;83.12
62152;BME280;48139;47.474;19.034;2022-09-09T04:59:36;100180.72;;;18.41;82.01
62152;BME280;48139;47.474;19.034;2022-09-09T05:02:39;100176.84;;;18.45;80.89
62152;BME280;48139;47.474;19.034;2022-09-09T05:05:42;100186.94;;;18.51;82.20
62152;BME280;48139;47.474;19.034;2022-09-09T05:08:45;100188.38;;;18.56;81.82
62152;BME280;48139;47.474;19.034;2022-09-09T05:11:49;100188.88;;;18.61;79.86
62152;BME280;48139;47.474;19.034;2022-09-09T05:14:54;100189.91;;;18.69;80.72
62152;BME280;48139;47.474;19.034;2022-09-09T05:18:00;100192.81;;;18.66;81.46
62152;BME280;48139;47.474;19.034;2022-09-09T05:21:03;100192.19;;;18.74;79.54
62152;BME280;48139;47.474;19.034;2022-09-09T05:24:06;100184.69;;;18.79;78.14
62152;BME280;48139;47.474;19.034;2022-09-09T05:27:09;100190.03;;;18.88;77.98
62152;BME280;48139;47.474;19.034;2022-09-09T05:30:14;100190.91;;;18.89;78.04
62152;BME280;48139;47.474;19.034;2022-09-09T05:33:17;100189.81;;;18.91;78.84
62152;BME280;48139;47.474;19.034;2022-09-09T05:36:21;100189.84;;;19.01;80.32
62152;BME280;48139;47.474;19.034;2022-09-09T05:39:25;100188.25;;;19.10;80.37
62152;BME280;48139;47.474;19.034;2022-09-09T05:42:31;100200.34;;;19.23;81.19
62152;BME280;48139;47.474;19.034;2022-09-09T05:45:35;100204.34;;;19.39;77.22
62152;BME280;48139;47.474;19.034;2022-09-09T05:48:40;100210.72;;;19.47;78.34
62152;BME280;48139;47.474;19.034;2022-09-09T05:51:42;100206.37;;;19.46;77.72
62152;BME280;48139;47.474;19.034;2022-09-09T05:54:45;100208.28;;;19.44;76.12
62152;BME280;48139;47.474;19.034;2022-09-09T05:57:48;100212.84;;;19.53;78.59
62152;BME280;48139;47.474;19.034;2022-09-09T06:00:52;100200.13;;;19.57;75.89
62152;BME280;48139;47.474;19.034;2022-09-09T06:03:55;100204.59;;;19.56;76.57
62152;BME280;48139;47.474;19.034;2022-09-09T06:06:57;100212.91;;;19.72;76.17
62152;BME280;48139;47.474;19.034;2022-09-09T06:10:00;100206.97;;;19.99;74.03
62152;BME280;48139;47.474;19.034;2022-09-09T06:13:06;100215.59;;;20.22;74.54
62152;BME280;48139;47.474;19.034;2022-09-09T06:16:14;100210.16;;;20.33;73.98
62152;BME280;48139;47.474;19.034;2022-09-09T06:19:17;100212.81;;;20.43;73.44
62152;BME280;48139;47.474;19.034;2022-09-09T06:22:20;100209.22;;;20.53;73.31
62152;BME280;48139;47.474;19.034;2022-09-09T06:25:22;100215.50;;;20.43;73.41
62152;BME280;48139;47.474;19.034;2022-09-09T06:28:27;100214.69;;;20.42;73.09
62152;BME280;48139;47.474;19.034;2022-09-09T06:31:32;100216.06;;;20.56;71.46
62152;BME280;48139;47.474;19.034;2022-09-09T06:34:38;100220.44;;;20.86;70.63
62152;BME280;48139;47.474;19.034;2022-09-09T06:37:44;100222.38;;;21.03;69.43
62152;BME280;48139;47.474;19.034;2022-09-09T06:40:53;100222.34;;;21.13;70.42
62152;BME280;48139;47.474;19.034;2022-09-09T06:44:00;100212.12;;;21.08;66.79
62152;BME280;48139;47.474;19.034;2022-09-09T06:47:05;100209.72;;;21.15;66.56
62152;BME280;48139;47.474;19.034;2022-09-09T06:50:08;100206.09;;;21.06;66.63
62152;BME280;48139;47.474;19.034;2022-09-09T06:53:10;100216.63;;;20.98;66.50
62152;BME280;48139;47.474;19.034;2022-09-09T06:59:19;100220.69;;;21.21;66.99
62152;BME280;48139;47.474;19.034;2022-09-09T07:02:22;100224.31;;;21.11;66.30
62152;BME280;48139;47.474;19.034;2022-09-09T07:05:26;100229.22;;;21.25;66.24
62152;BME280;48139;47.474;19.034;2022-09-09T07:08:29;100233.44;;;21.27;65.67
62152;BME280;48139;47.474;19.034;2022-09-09T07:11:38;100237.09;;;21.17;66.01
62152;BME280;48139;47.474;19.034;2022-09-09T07:14:40;100231.34;;;21.02;69.00
62152;BME280;48139;47.474;19.034;2022-09-09T07:17:45;100232.59;;;20.88;66.71
62152;BME280;48139;47.474;19.034;2022-09-09T07:20:53;100240.03;;;20.75;68.17
62152;BME280;48139;47.474;19.034;2022-09-09T07:23:58;100242.44;;;20.98;67.36
62152;BME280;48139;47.474;19.034;2022-09-09T07:27:01;100240.16;;;21.31;66.94
62152;BME280;48139;47.474;19.034;2022-09-09T07:30:06;100238.72;;;21.47;65.76
62152;BME280;48139;47.474;19.034;2022-09-09T07:33:10;100243.91;;;21.48;64.89
62152;BME280;48139;47.474;19.034;2022-09-09T07:36:14;100243.66;;;21.42;65.25
62152;BME280;48139;47.474;19.034;2022-09-09T07:39:17;100245.28;;;21.52;64.99
62152;BME280;48139;47.474;19.034;2022-09-09T07:42:20;100244.78;;;21.76;65.08
62152;BME280;48139;47.474;19.034;2022-09-09T07:45:24;100248.25;;;21.96;64.05
62152;BME280;48139;47.474;19.034;2022-09-09T07:48:27;100248.69;;;22.19;65.46
62152;BME280;48139;47.474;19.034;2022-09-09T07:51:36;100242.00;;;22.32;59.42
62152;BME280;48139;47.474;19.034;2022-09-09T07:54:39;100254.47;;;22.41;59.83
62152;BME280;48139;47.474;19.034;2022-09-09T07:57:42;100249.00;;;22.61;58.73
62152;BME280;48139;47.474;19.034;2022-09-09T08:00:45;100258.63;;;22.89;58.11
62152;BME280;48139;47.474;19.034;2022-09-09T08:03:57;100251.34;;;23.17;56.64
62152;BME280;48139;47.474;19.034;2022-09-09T08:07:03;100253.41;;;23.75;54.86
62152;BME280;48139;47.474;19.034;2022-09-09T08:10:08;100244.59;;;23.82;54.18
62152;BME280;48139;47.474;19.034;2022-09-09T08:13:10;100251.06;;;23.71;55.87
62152;BME280;48139;47.474;19.034;2022-09-09T08:16:23;100240.66;;;23.60;55.74
62152;BME280;48139;47.474;19.034;2022-09-09T08:19:26;100246.69;;;23.45;54.48
62152;BME280;48139;47.474;19.034;2022-09-09T08:22:32;100241.81;;;23.40;54.43
62152;BME280;48139;47.474;19.034;2022-09-09T08:25:36;100247.97;;;23.58;53.24
62152;BME280;48139;47.474;19.034;2022-09-09T08:28:39;100252.19;;;23.61;54.25
62152;BME280;48139;47.474;19.034;2022-09-09T08:31:51;100247.56;;;23.71;53.30
62152;BME280;48139;47.474;19.034;2022-09-09T08:34:54;100235.12;;;23.96;53.09
62152;BME280;48139;47.474;19.034;2022-09-09T08:38:02;100241.56;;;24.11;52.05
62152;BME280;48139;47.474;19.034;2022-09-09T08:41:34;100239.03;;;24.18;49.75
62152;BME280;48139;47.474;19.034;2022-09-09T08:51:34;100243.69;;;24.49;51.46
62152;BME280;48139;47.474;19.034;2022-09-09T08:54:37;100242.53;;;24.52;49.28
62152;BME280;48139;47.474;19.034;2022-09-09T08:57:56;100247.94;;;24.84;48.78
62152;BME280;48139;47.474;19.034;2022-09-09T09:04:33;100247.28;;;26.95;44.20
62152;BME280;48139;47.474;19.034;2022-09-09T09:10:54;100238.62;;;27.75;39.46
62152;BME280;48139;47.474;19.034;2022-09-09T09:14:03;100228.56;;;27.39;39.74
62152;BME280;48139;47.474;19.034;2022-09-09T09:17:17;100236.31;;;27.19;41.20
62152;BME280;48139;47.474;19.034;2022-09-09T09:24:30;100242.12;;;26.32;42.30
62152;BME280;48139;47.474;19.034;2022-09-09T09:31:12;100217.47;;;25.89;41.18
62152;BME280;48139;47.474;19.034;2022-09-09T09:34:22;100214.09;;;25.95;41.31
62152;BME280;48139;47.474;19.034;2022-09-09T09:37:30;100209.28;;;25.83;43.32
62152;BME280;48139;47.474;19.034;2022-09-09T09:40:48;100204.62;;;25.68;40.18
62152;BME280;48139;47.474;19.034;2022-09-09T09:43:54;100203.03;;;25.90;41.68
62152;BME280;48139;47.474;19.034;2022-09-09T09:50:17;100219.75;;;26.08;40.27
62152;BME280;48139;47.474;19.034;2022-09-09T09:53:27;100223.22;;;26.17;40.17
62152;BME280;48139;47.474;19.034;2022-09-09T09:56:32;100211.13;;;26.29;40.20
62152;BME280;48139;47.474;19.034;2022-09-09T09:59:37;100219.00;;;26.54;41.28
62152;BME280;48139;47.474;19.034;2022-09-09T10:02:44;100219.66;;;26.56;39.31
62152;BME280;48139;47.474;19.034;2022-09-09T10:05:48;100219.59;;;26.64;37.73
62152;BME280;48139;47.474;19.034;2022-09-09T10:08:51;100213.75;;;26.60;37.57
62152;BME280;48139;47.474;19.034;2022-09-09T10:18:41;100209.16;;;26.69;37.70
62152;BME280;48139;47.474;19.034;2022-09-09T10:39:00;100209.47;;;27.11;36.29
62152;BME280;48139;47.474;19.034;2022-09-09T10:42:08;100210.16;;;27.13;35.37
62152;BME280;48139;47.474;19.034;2022-09-09T10:45:20;100208.84;;;27.09;35.25
62152;BME280;48139;47.474;19.034;2022-09-09T10:52:03;100205.00;;;26.89;33.60
62152;BME280;48139;47.474;19.034;2022-09-09T10:55:16;100202.03;;;26.99;35.54
62152;BME280;48139;47.474;19.034;2022-09-09T10:58:28;100196.66;;;26.99;35.58
62152;BME280;48139;47.474;19.034;2022-09-09T11:01:46;100194.62;;;27.01;36.09
62152;BME280;48139;47.474;19.034;2022-09-09T11:11:34;100191.03;;;27.08;35.98
62152;BME280;48139;47.474;19.034;2022-09-09T11:14:47;100183.75;;;27.17;35.44
62152;BME280;48139;47.474;19.034;2022-09-09T11:18:01;100190.50;;;27.27;36.85
62152;BME280;48139;47.474;19.034;2022-09-09T11:21:20;100185.47;;;27.24;38.04
62152;BME280;48139;47.474;19.034;2022-09-09T11:24:45;100184.97;;;27.29;37.74
62152;BME280;48139;47.474;19.034;2022-09-09T11:31:24;100185.78;;;27.44;37.10
62152;BME280;48139;47.474;19.034;2022-09-09T11:35:00;100174.75;;;27.39;35.89
62152;BME280;48139;47.474;19.034;2022-09-09T11:38:25;100179.56;;;27.44;36.80
62152;BME280;48139;47.474;19.034;2022-09-09T11:41:34;100182.66;;;27.55;38.37
62152;BME280;48139;47.474;19.034;2022-09-09T11:44:39;100181.25;;;27.45;35.72
62152;BME280;48139;47.474;19.034;2022-09-09T11:47:51;100164.44;;;27.28;36.29
62152;BME280;48139;47.474;19.034;2022-09-09T11:51:01;100159.31;;;27.18;37.86
62152;BME280;48139;47.474;19.034;2022-09-09T11:54:28;100165.44;;;27.12;37.38
62152;BME280;48139;47.474;19.034;2022-09-09T11:57:35;100181.03;;;26.79;38.42
62152;BME280;48139;47.474;19.034;2022-09-09T12:00:40;100168.78;;;26.77;39.30
62152;BME280;48139;47.474;19.034;2022-09-09T12:03:48;100169.88;;;26.91;38.86
62152;BME280;48139;47.474;19.034;2022-09-09T12:07:01;100160.41;;;26.95;38.46
62152;BME280;48139;47.474;19.034;2022-09-09T12:13:25;100157.56;;;26.73;40.62
62152;BME280;48139;47.474;19.034;2022-09-09T12:16:36;100176.97;;;26.61;40.90
62152;BME280;48139;47.474;19.034;2022-09-09T12:19:40;100183.06;;;26.55;40.67
62152;BME280;48139;47.474;19.034;2022-09-09T12:23:41;100180.72;;;26.52;40.25
62152;BME280;48139;47.474;19.034;2022-09-09T12:30:09;100171.44;;;27.00;39.63
62152;BME280;48139;47.474;19.034;2022-09-09T12:33:17;100164.38;;;26.99;41.75
62152;BME280;48139;47.474;19.034;2022-09-09T12:36:27;100158.84;;;27.00;40.29
62152;BME280;48139;47.474;19.034;2022-09-09T12:39:35;100152.63;;;27.00;40.09
62152;BME280;48139;47.474;19.034;2022-09-09T12:42:40;100146.81;;;27.11;40.01
62152;BME280;48139;47.474;19.034;2022-09-09T12:45:42;100154.50;;;27.14;40.41
62152;BME280;48139;47.474;19.034;2022-09-09T12:48:45;100145.59;;;27.13;39.04
62152;BME280;48139;47.474;19.034;2022-09-09T12:51:48;100137.28;;;27.23;39.67
62152;BME280;48139;47.474;19.034;2022-09-09T12:54:51;100137.81;;;27.18;39.77
62152;BME280;48139;47.474;19.034;2022-09-09T12:57:56;100140.72;;;27.17;39.27
62152;BME280;48139;47.474;19.034;2022-09-09T13:01:03;100127.81;;;27.27;39.57
62152;BME280;48139;47.474;19.034;2022-09-09T13:04:20;100130.84;;;27.24;37.88
62152;BME280;48139;47.474;19.034;2022-09-09T13:07:24;100121.50;;;27.35;38.75
62152;BME280;48139;47.474;19.034;2022-09-09T13:10:29;100112.97;;;27.46;37.20
62152;BME280;48139;47.474;19.034;2022-09-09T13:13:51;100097.91;;;27.37;37.48
62152;BME280;48139;47.474;19.034;2022-09-09T13:17:01;100101.56;;;27.29;37.85
62152;BME280;48139;47.474;19.034;2022-09-09T13:20:05;100104.91;;;27.16;37.35
62152;BME280;48139;47.474;19.034;2022-09-09T13:23:11;100091.63;;;27.15;36.82
62152;BME280;48139;47.474;19.034;2022-09-09T13:26:25;100089.88;;;27.07;37.74
62152;BME280;48139;47.474;19.034;2022-09-09T13:29:30;100092.56;;;27.22;37.51
62152;BME280;48139;47.474;19.034;2022-09-09T13:32:33;100093.69;;;27.27;35.08
62152;BME280;48139;47.474;19.034;2022-09-09T13:35:46;100099.50;;;27.31;35.73
62152;BME280;48139;47.474;19.034;2022-09-09T13:38:55;100085.69;;;27.34;35.91
62152;BME280;48139;47.474;19.034;2022-09-09T13:41:58;100092.38;;;27.38;36.97
62152;BME280;48139;47.474;19.034;2022-09-09T13:45:02;100082.16;;;27.19;37.34
62152;BME280;48139;47.474;19.034;2022-09-09T13:48:10;100086.44;;;27.13;37.08
62152;BME280;48139;47.474;19.034;2022-09-09T13:51:39;100082.91;;;27.13;42.57
62152;BME280;48139;47.474;19.034;2022-09-09T13:54:42;100075.78;;;27.20;40.77
62152;BME280;48139;47.474;19.034;2022-09-09T13:57:55;100069.66;;;27.26;36.60
62152;BME280;48139;47.474;19.034;2022-09-09T14:00:58;100071.03;;;27.66;37.11
62152;BME280;48139;47.474;19.034;2022-09-09T14:04:00;100072.41;;;27.98;36.44
62152;BME280;48139;47.474;19.034;2022-09-09T14:07:03;100059.44;;;28.08;37.35
62152;BME280;48139;47.474;19.034;2022-09-09T14:10:06;100049.38;;;27.95;37.26
62152;BME280;48139;47.474;19.034;2022-09-09T14:13:09;100050.87;;;27.62;36.67
62152;BME280;48139;47.474;19.034;2022-09-09T14:16:11;100041.66;;;27.20;36.76
62152;BME280;48139;47.474;19.034;2022-09-09T14:19:14;100039.78;;;27.06;35.51
62152;BME280;48139;47.474;19.034;2022-09-09T14:22:16;100033.97;;;27.03;36.44
62152;BME280;48139;47.474;19.034;2022-09-09T14:25:19;100033.87;;;26.96;36.75
62152;BME280;48139;47.474;19.034;2022-09-09T14:28:22;100045.47;;;26.97;35.15
62152;BME280;48139;47.474;19.034;2022-09-09T14:31:44;100040.00;;;27.05;36.40
62152;BME280;48139;47.474;19.034;2022-09-09T14:34:47;100041.28;;;26.94;35.19
62152;BME280;48139;47.474;19.034;2022-09-09T14:37:51;100046.44;;;26.81;36.08
62152;BME280;48139;47.474;19.034;2022-09-09T14:40:54;100044.56;;;26.81;35.96
62152;BME280;48139;47.474;19.034;2022-09-09T14:43:56;100029.34;;;26.97;36.96
62152;BME280;48139;47.474;19.034;2022-09-09T14:46:59;100030.91;;;26.91;36.92
62152;BME280;48139;47.474;19.034;2022-09-09T14:50:02;100027.25;;;26.84;37.92
62152;BME280;48139;47.474;19.034;2022-09-09T14:53:07;100031.97;;;26.82;36.71
62152;BME280;48139;47.474;19.034;2022-09-09T14:56:20;100037.53;;;26.66;36.69
62152;BME280;48139;47.474;19.034;2022-09-09T14:59:25;100034.34;;;26.47;37.94
62152;BME280;48139;47.474;19.034;2022-09-09T15:02:28;100039.00;;;26.54;37.48
62152;BME280;48139;47.474;19.034;2022-09-09T15:05:32;100034.47;;;26.54;36.65
62152;BME280;48139;47.474;19.034;2022-09-09T15:08:38;100037.37;;;26.44;36.10
62152;BME280;48139;47.474;19.034;2022-09-09T15:11:44;100034.41;;;26.39;37.41
62152;BME280;48139;47.474;19.034;2022-09-09T15:14:47;100043.16;;;26.41;36.71
62152;BME280;48139;47.474;19.034;2022-09-09T15:17:50;100038.28;;;26.37;36.66
62152;BME280;48139;47.474;19.034;2022-09-09T15:20:52;100035.59;;;26.37;36.79
62152;BME280;48139;47.474;19.034;2022-09-09T15:23:56;100032.47;;;26.33;36.60
62152;BME280;48139;47.474;19.034;2022-09-09T15:27:00;100037.47;;;26.36;36.84
62152;BME280;48139;47.474;19.034;2022-09-09T15:30:03;100036.50;;;26.52;36.61
62152;BME280;48139;47.474;19.034;2022-09-09T15:33:08;100035.06;;;26.79;35.84
62152;BME280;48139;47.474;19.034;2022-09-09T15:36:26;100027.22;;;26.92;36.21
62152;BME280;48139;47.474;19.034;2022-09-09T15:39:30;100032.66;;;27.13;35.19
